Warning: Javascript must be enabled to use all the features on this page!


Page Loading - Please Wait...

* We've detected you're using a mobile device. Find our Next Generation Station Page here.
Click to hideNews Bulletins
  • Attention current WaterAlert users: NextGen WaterAlert is replacing Legacy WaterAlert. You must take action before 9/30/2022 to retain your alerts. Read more.
  • Explore the NEW USGS National Water Dashboard interactive map to access real-time water data from over 13,500 stations nationwide.
  • Full News RSS icon

Peak Streamflow for the Nation

USGS 03335000 WILDCAT CREEK NEAR LAFAYETTE, IN

Tippecanoe County, Indiana
Hydrologic Unit Code 05120107
Latitude  40°26'26", Longitude  86°49'45" NAD27
Drainage area 794  square miles
Gage datum 527.04 feet above NAVD88
Output formats
Table
Graph
Tab-separated file
peakfq (watstore) format
Reselect output format
Water
Year
Date Gage
Height
(feet)
Stream-
flow
(cfs)
1955 1955-01-06 11.52 6,500
1956 1956-05-29 9.85 5,280
1957 1957-07-23 14.06 9,110
1958 1958-06-10 21.52 25,000
1959 1959-02-10 19.36 18,400
1960 1960-02-10 9.26 4,700
1961 1961-04-25 12.77 8,200
1962 1962-01-27 15.04 10,600
1963 1963-03-06 14.40 10,700
1964 1964-04-21 18.36 18,300
1965 1965-04-09 10.982 6,950
1966 1966-02-11 6.02 1,950
1967 1966-12-09 13.54 9,700
1968 1967-12-22 16.22 13,900
1969 1969-01-30 15.08 12,300
1970 1970-04-20 11.94 8,040
1971 1971-02-20 11.28 7,070
1972 1972-04-22 14.55 11,500
1973 1972-12-31 10.78 6,300
1974 1974-01-21 15.32 12,500
1975 1975-05-22 12.40 8,370
1976 1976-02-17 13.18 9,400
1977 1977-03-29 7.32 2,720
1978 1978-03-21 16.18 13,800
1979 1979-03-04   9,0002
1980 1980-06-03 16.34 12,700
1981 1981-08-31 15.46 11,400
1982 1982-03-13 13.912 9,350
1983 1983-05-02 20.59 22,100
1984 1984-02-13 12.60 7,740
1985 1985-02-24 19.09 17,300
1986 1985-11-20 13.02 8,500
1987 1987-05-21 6.97 2,340
1988 1988-04-07 11.22 6,320
1989 1989-05-26 20.70 21,700
1990 1990-03-11 16.69 13,500
1991 1990-12-31 18.84 16,900
1992 1992-07-15 16.98 13,900
1993 1992-11-13 17.78 15,200
1994 1994-04-12 16.62 13,400
1995 1995-03-08 10.81 5,880
1996 1996-05-11 12.71 8,080
1997 1997-02-27 17.30 14,400
1998 1998-06-13 19.06 17,300
1999 1999-01-23 18.15 15,400
2000 2000-06-25 13.93 9,190
2001 2001-02-15 9.40 4,570
2002 2002-05-14 11.56 6,780
2003 2003-07-07 23.64 23,500
2004 2004-06-12 19.31 16,800
2005 2005-01-14 20.27 18,200
2006 2006-07-13 12.05 7,320
2007 2007-03-23 14.85 10,700
2008 2008-02-06 15.04 10,900
2009 2009-02-13 15.77 11,900
2010 2010-06-22 18.65 15,800
2011 2011-04-28 16.51 12,800
2012 2011-11-30 13.66 9,210
2013 2013-04-20 22.91 22,300
2014 2014-04-04 12.962 8,370
2015 2015-06-29 13.83 9,420
2016 2015-12-29 15.58 11,600
2017 2017-05-05 17.11 13,600
2018 2017-11-19 13.74 9,260
2019 2019-01-24 13.69 9,200
2020 2020-05-18 13.65 9,140
2021 2021-05-10 13.11 8,410
?
  Peak Gage-Height Qualification Codes.
?
  Peak Streamflow Qualification Codes.